Time;durP1;ratioP1;P1;durP2;ratioP2;P2;SDS_P1;SDS_P2;PMS_P1;PMS_P2;Temp;Humidity;BMP_temperature;BMP_pressure;BME280_temperature;BME280_humidity;BME280_pressure;Samples;Min_cycle;Max_cycle;Signal;HPM_P1;HPM_P2
2023/03/13 00:02:14;;;;;;;0.10;0.10;;;;;;;-5.12;73.32;98322.34;5004235;28;20082;-70
2023/03/13 00:04:40;;;;;;;0.10;0.10;;;;;;;-5.14;73.73;98323.59;5004600;28;20116;-70
2023/03/13 00:07:06;;;;;;;0.10;0.10;;;;;;;-5.05;73.49;98340.19;4986453;28;20041;-69
2023/03/13 00:09:34;;;;;;;0.13;0.10;;;;;;;-5.08;73.41;98340.56;5003896;28;20049;-69
2023/03/13 00:12:00;;;;;;;0.10;0.10;;;;;;;-5.10;73.54;98345.28;5001512;28;20460;-70
2023/03/13 00:14:26;;;;;;;0.10;0.10;;;;;;;-5.08;73.75;98343.22;5002819;28;20058;-70
2023/03/13 00:16:52;;;;;;;0.10;0.10;;;;;;;-5.11;73.61;98355.16;5004286;28;20386;-70
2023/03/13 00:19:18;;;;;;;0.10;0.10;;;;;;;-5.10;73.91;98350.63;5003599;28;20058;-69
2023/03/13 00:21:44;;;;;;;0.10;0.10;;;;;;;-5.15;74.01;98356.56;5002169;28;20057;-68
2023/03/13 00:24:11;;;;;;;0.10;0.10;;;;;;;-5.12;73.99;98359.66;5001365;28;20049;-70
2023/03/13 00:26:38;;;;;;;0.13;0.10;;;;;;;-5.13;74.11;98368.69;5001603;28;20085;-70
2023/03/13 00:29:05;;;;;;;0.10;0.10;;;;;;;-5.18;74.27;98365.00;5018709;28;20054;-68
2023/03/13 00:31:31;;;;;;;0.10;0.10;;;;;;;-5.15;73.23;98369.91;5006102;28;20125;-68
2023/03/13 00:33:59;;;;;;;0.10;0.10;;;;;;;-5.22;73.19;98380.59;5003485;28;20049;-68
2023/03/13 00:36:28;;;;;;;0.10;0.10;;;;;;;-5.15;73.69;98383.22;5002224;28;20111;-70
2023/03/13 00:38:55;;;;;;;0.10;0.10;;;;;;;-5.14;72.74;98380.38;4999488;28;20441;-70
2023/03/13 00:41:23;;;;;;;0.10;0.10;;;;;;;-5.21;72.34;98384.91;5000018;28;20128;-69
2023/03/13 00:43:50;;;;;;;;;;;;;;;-5.24;72.42;98379.16;5004773;28;20046;-70
2023/03/13 00:46:17;;;;;;;;;;;;;;;-5.29;72.61;98372.59;5005944;28;20427;-69
2023/03/13 00:48:43;;;;;;;0.10;0.10;;;;;;;-5.27;71.63;98388.38;5005610;28;19971;-69
2023/03/13 00:51:12;;;;;;;0.10;0.10;;;;;;;-5.24;71.94;98398.63;5004211;28;20359;-71
2023/03/13 00:53:38;;;;;;;0.10;0.10;;;;;;;-5.17;72.08;98410.09;5001214;28;20050;-69
2023/03/13 00:56:07;;;;;;;0.10;0.10;;;;;;;-5.17;72.33;98411.94;5002054;28;20058;-69
2023/03/13 00:58:35;;;;;;;0.10;0.10;;;;;;;-5.06;72.03;98419.31;5002939;28;20049;-69
2023/03/13 01:01:11;;;;;;;0.10;0.10;;;;;;;-5.02;72.20;98430.41;5006145;28;20141;-69
2023/03/13 01:03:39;;;;;;;0.10;0.10;;;;;;;-5.04;72.27;98425.25;5003806;28;20049;-69
2023/03/13 01:06:08;;;;;;;0.00;0.00;;;;;;;-5.01;72.47;98429.38;5003596;28;20558;-69
2023/03/13 01:08:34;;;;;;;0.10;0.10;;;;;;;-4.96;70.99;98431.41;5000817;28;20137;-69
2023/03/13 01:11:02;;;;;;;0.10;0.10;;;;;;;-5.05;71.69;98436.16;5002461;28;20600;-69
2023/03/13 01:13:31;;;;;;;0.10;0.10;;;;;;;-5.04;71.59;98456.44;5003836;28;20045;-69
2023/03/13 01:16:01;;;;;;;0.10;0.10;;;;;;;-5.06;71.69;98453.97;5003189;28;20065;-69
2023/03/13 01:18:28;;;;;;;0.10;0.10;;;;;;;-5.09;71.89;98449.06;5003677;28;20240;-69
2023/03/13 01:20:54;;;;;;;0.10;0.10;;;;;;;-5.08;71.63;98458.69;5001606;28;20438;-69
2023/03/13 01:23:21;;;;;;;0.10;0.10;;;;;;;-5.22;71.55;98447.22;5006000;28;20049;-70
2023/03/13 01:25:46;;;;;;;0.10;0.10;;;;;;;-5.25;71.73;98468.13;5002502;28;20046;-69
2023/03/13 01:28:13;;;;;;;0.10;0.10;;;;;;;-5.36;72.00;98474.91;4981710;28;20050;-70
2023/03/13 01:30:39;;;;;;;0.20;0.20;;;;;;;-5.46;72.28;98483.28;5003257;28;20050;-69
2023/03/13 01:33:05;;;;;;;0.20;0.20;;;;;;;-5.58;72.86;98491.03;4985630;28;20111;-70
2023/03/13 01:35:33;;;;;;;0.43;0.20;;;;;;;-5.63;73.31;98494.31;5003209;28;20053;-70
2023/03/13 01:37:59;;;;;;;0.10;0.10;;;;;;;-5.72;73.27;98490.19;5000965;28;20054;-70
2023/03/13 01:40:25;;;;;;;0.10;0.10;;;;;;;-5.71;73.68;98497.16;5001730;28;20065;-68
2023/03/13 01:42:52;;;;;;;0.10;0.10;;;;;;;-5.78;74.03;98504.28;5002234;28;20053;-68
2023/03/13 01:45:55;;;;;;;0.10;0.10;;;;;;;-5.79;74.49;98516.81;5002851;28;20045;-68
2023/03/13 01:48:29;;;;;;;0.10;0.10;;;;;;;-5.85;74.72;98517.63;5002176;28;20135;-68
2023/03/13 01:51:00;;;;;;;0.10;0.10;;;;;;;-5.83;75.32;98536.88;5001216;28;20045;-68
2023/03/13 01:53:30;;;;;;;0.10;0.10;;;;;;;-5.82;75.04;98527.03;5000104;28;20054;-68
2023/03/13 01:55:58;;;;;;;0.10;0.10;;;;;;;-5.86;74.84;98538.09;5004829;28;20054;-68
2023/03/13 01:58:25;;;;;;;;;;;;;;;-5.92;75.46;98544.22;5001398;28;20050;-68
2023/03/13 02:00:52;;;;;;;0.10;0.10;;;;;;;-5.98;75.65;98545.81;5001119;28;19930;-68
2023/03/13 02:03:20;;;;;;;0.10;0.10;;;;;;;-5.99;76.11;98544.19;5000070;28;20080;-68
2023/03/13 02:05:47;;;;;;;0.10;0.10;;;;;;;-6.03;76.21;98553.59;5001547;28;20046;-68
2023/03/13 02:08:20;;;;;;;0.10;0.10;;;;;;;-6.08;76.63;98558.69;4999306;28;20064;-69
2023/03/13 02:10:50;;;;;;;0.10;0.10;;;;;;;-6.04;76.70;98562.59;4985594;28;20053;-69
2023/03/13 02:13:18;;;;;;;0.10;0.10;;;;;;;-6.13;76.24;98555.81;4983776;28;20073;-68
2023/03/13 02:15:45;;;;;;;0.20;0.20;;;;;;;-6.01;76.23;98572.84;5016645;28;20054;-68
2023/03/13 02:18:12;;;;;;;0.10;0.10;;;;;;;-6.03;76.23;98579.41;5001677;28;20045;-68
2023/03/13 02:20:39;;;;;;;0.10;0.10;;;;;;;-6.02;76.23;98581.06;5013563;28;20057;-68
2023/03/13 02:23:18;;;;;;;0.20;0.20;;;;;;;-6.09;76.55;98589.00;5001802;28;20050;-68
2023/03/13 02:25:48;;;;;;;0.10;0.10;;;;;;;-6.08;76.91;98590.63;4984807;28;20053;-69
2023/03/13 02:28:20;;;;;;;0.20;0.20;;;;;;;-6.12;76.97;98592.06;4994435;28;20073;-68
2023/03/13 02:30:48;;;;;;;0.20;0.20;;;;;;;-6.10;77.31;98602.50;5003444;28;20050;-68
2023/03/13 02:33:17;;;;;;;0.20;0.20;;;;;;;-6.10;76.99;98602.50;5001937;28;20057;-68
2023/03/13 02:35:46;;;;;;;0.20;0.20;;;;;;;-6.08;76.88;98619.13;5000789;28;20046;-69
2023/03/13 02:38:21;;;;;;;0.30;0.30;;;;;;;-6.10;76.94;98621.97;4999583;28;20045;-68
2023/03/13 02:40:51;;;;;;;0.17;0.17;;;;;;;-6.12;77.17;98624.00;5000420;28;20308;-68
2023/03/13 02:43:23;;;;;;;0.20;0.10;;;;;;;-6.17;77.28;98618.41;5001213;28;20093;-68
2023/03/13 02:46:04;;;;;;;0.10;0.10;;;;;;;-6.17;76.87;98619.25;4996394;28;20042;-68
2023/03/13 02:48:35;;;;;;;0.20;0.20;;;;;;;-6.10;77.01;98629.94;4997997;28;20047;-68
2023/03/13 02:51:03;;;;;;;0.10;0.10;;;;;;;-6.17;76.83;98640.53;5000005;28;20054;-68
2023/03/13 02:53:30;;;;;;;0.10;0.10;;;;;;;-6.18;77.40;98646.03;4997786;28;20048;-68
2023/03/13 02:55:58;;;;;;;0.10;0.10;;;;;;;-6.23;77.58;98646.66;5003531;28;20095;-68
2023/03/13 02:58:25;;;;;;;0.10;0.10;;;;;;;-6.24;77.84;98650.34;4989924;28;20052;-68
2023/03/13 03:00:55;;;;;;;0.10;0.10;;;;;;;-6.21;77.53;98652.59;4988638;28;20476;-69
2023/03/13 03:03:22;;;;;;;0.10;0.10;;;;;;;-6.20;77.68;98658.72;5004702;28;20046;-68
2023/03/13 03:05:48;;;;;;;0.00;0.00;;;;;;;-6.18;77.15;98660.19;5005779;28;20056;-68
2023/03/13 03:08:14;;;;;;;0.20;0.20;;;;;;;-6.22;77.08;98664.25;5001260;28;20053;-69
2023/03/13 03:10:41;;;;;;;0.10;0.10;;;;;;;-6.23;77.12;98659.13;5003034;28;20050;-68
2023/03/13 03:13:09;;;;;;;0.10;0.10;;;;;;;-6.20;77.05;98672.03;4988491;28;20624;-68
2023/03/13 03:15:35;;;;;;;0.10;0.10;;;;;;;-6.19;76.74;98677.19;5002529;28;20141;-68
2023/03/13 03:18:02;;;;;;;0.00;0.00;;;;;;;-6.30;76.42;98659.91;5005797;28;20112;-70
2023/03/13 03:20:29;;;;;;;0.00;0.00;;;;;;;-6.24;76.63;98681.44;5007219;28;20514;-70
2023/03/13 03:22:55;;;;;;;0.10;0.10;;;;;;;-6.29;76.46;98682.84;5003505;28;20048;-71
2023/03/13 03:25:21;;;;;;;0.10;0.10;;;;;;;-6.25;76.64;98693.09;5003827;28;20046;-70
2023/03/13 03:27:48;;;;;;;0.10;0.10;;;;;;;-6.25;76.63;98696.56;5006123;28;20045;-70
2023/03/13 03:30:17;;;;;;;0.10;0.10;;;;;;;-6.27;76.41;98688.78;5001712;28;20058;-70
2023/03/13 03:32:43;;;;;;;0.10;0.10;;;;;;;-6.25;75.87;98704.53;5004114;28;20505;-71
2023/03/13 03:35:09;;;;;;;0.10;0.10;;;;;;;-6.27;76.12;98693.28;4985888;28;20054;-70
2023/03/13 03:37:35;;;;;;;0.10;0.10;;;;;;;-6.35;75.83;98698.75;5002167;28;20052;-70
2023/03/13 03:40:05;;;;;;;0.10;0.10;;;;;;;-6.32;76.05;98716.97;5018620;28;20054;-70
2023/03/13 03:42:31;;;;;;;0.10;0.10;;;;;;;-6.34;75.95;98713.69;5004422;28;20104;-70
2023/03/13 03:44:57;;;;;;;0.10;0.10;;;;;;;-6.36;75.83;98721.84;5001610;28;20457;-68
2023/03/13 03:47:25;;;;;;;0.10;0.10;;;;;;;-6.44;76.08;98722.81;4999042;28;20056;-69
2023/03/13 03:49:51;;;;;;;0.00;0.00;;;;;;;-6.38;75.88;98731.88;4986893;28;20057;-68
2023/03/13 03:52:17;;;;;;;0.10;0.10;;;;;;;-6.37;76.04;98730.03;5002987;28;20049;-68
2023/03/13 03:54:44;;;;;;;0.00;0.00;;;;;;;-6.32;75.70;98730.28;5016380;28;20136;-68
2023/03/13 03:57:11;;;;;;;0.10;0.10;;;;;;;-6.38;75.49;98718.56;5003479;28;20315;-68
2023/03/13 03:59:38;;;;;;;0.00;0.00;;;;;;;-6.37;75.45;98727.38;5000805;28;20061;-68
2023/03/13 04:02:08;;;;;;;0.27;0.20;;;;;;;-6.34;75.87;98732.31;4974656;28;20050;-70
2023/03/13 04:04:36;;;;;;;0.40;0.10;;;;;;;-6.31;75.44;98739.91;4984311;28;20395;-69
2023/03/13 04:07:07;;;;;;;0.10;0.10;;;;;;;-6.32;75.43;98744.44;5002219;28;20118;-70
2023/03/13 04:09:34;;;;;;;0.10;0.10;;;;;;;-6.42;75.36;98727.94;4986311;28;20054;-70
2023/03/13 04:12:01;;;;;;;0.10;0.10;;;;;;;-6.32;75.10;98739.09;4985628;28;20117;-70
2023/03/13 04:14:31;;;;;;;0.10;0.10;;;;;;;-6.27;75.02;98750.00;5003575;28;20108;-70
2023/03/13 04:16:58;;;;;;;0.10;0.10;;;;;;;-6.22;75.24;98761.88;5004615;28;20791;-70
2023/03/13 04:19:24;;;;;;;0.10;0.10;;;;;;;-6.18;74.83;98765.81;4984705;28;20064;-70
2023/03/13 04:21:52;;;;;;;0.13;0.13;;;;;;;-6.14;74.58;98767.91;5001217;28;20588;-70
2023/03/13 04:24:18;;;;;;;0.10;0.10;;;;;;;-6.15;74.97;98762.78;5001647;28;20093;-69
2023/03/13 04:26:45;;;;;;;0.10;0.10;;;;;;;-6.14;74.63;98781.22;5014779;28;20047;-70
2023/03/13 04:29:11;;;;;;;0.10;0.10;;;;;;;-6.27;74.52;98763.28;5003016;28;20064;-71
2023/03/13 04:32:06;;;;;;;0.10;0.10;;;;;;;-6.14;75.14;98775.88;4969500;28;20067;-70
2023/03/13 04:34:39;;;;;;;0.10;0.10;;;;;;;-6.10;75.02;98775.50;5000923;28;20042;-69
2023/03/13 04:37:25;;;;;;;0.10;0.10;;;;;;;-6.08;74.92;98787.63;5000955;28;20069;-69
2023/03/13 04:40:17;;;;;;;0.10;0.10;;;;;;;-6.03;74.60;98795.03;4988808;28;20064;-70
2023/03/13 04:42:46;;;;;;;0.10;0.10;;;;;;;-6.02;74.34;98794.00;4984488;28;20058;-71
2023/03/13 04:45:37;;;;;;;0.10;0.10;;;;;;;-5.93;74.58;98813.31;4983083;28;20512;-70
2023/03/13 04:48:20;;;;;;;0.10;0.10;;;;;;;-5.94;74.20;98817.78;4999018;28;20099;-70
2023/03/13 04:51:18;;;;;;;0.20;0.20;;;;;;;-5.92;73.77;98823.78;4998883;28;20054;-70
2023/03/13 04:54:15;;;;;;;0.10;0.10;;;;;;;-5.91;73.94;98835.25;4968525;28;20051;-70
2023/03/13 04:56:51;;;;;;;0.10;0.10;;;;;;;-5.90;73.24;98835.06;5004058;28;20053;-68
2023/03/13 04:59:35;;;;;;;0.10;0.10;;;;;;;-5.94;73.37;98831.09;5007494;28;20079;-68
2023/03/13 05:02:25;;;;;;;0.10;0.10;;;;;;;-5.91;73.26;98833.41;5001140;28;20050;-68
2023/03/13 05:05:05;;;;;;;0.10;0.10;;;;;;;-5.91;73.29;98844.06;5005003;28;20057;-68
2023/03/13 05:07:48;;;;;;;0.10;0.10;;;;;;;-5.91;73.06;98844.06;5009032;28;20320;-68
2023/03/13 05:10:48;;;;;;;0.10;0.10;;;;;;;-5.86;73.51;98846.13;4983376;28;20050;-68
2023/03/13 05:13:32;;;;;;;0.10;0.10;;;;;;;-5.75;72.59;98860.78;4996070;28;20439;-68
2023/03/13 05:16:13;;;;;;;0.10;0.10;;;;;;;-5.77;72.43;98858.31;5006373;28;20053;-68
2023/03/13 05:18:58;;;;;;;0.10;0.10;;;;;;;-5.74;72.27;98862.44;5004597;28;20152;-68
2023/03/13 05:21:39;;;;;;;0.10;0.10;;;;;;;-5.71;72.09;98867.38;5003546;28;20088;-68
2023/03/13 05:24:43;;;;;;;0.20;0.20;;;;;;;-5.61;71.83;98873.22;4972551;28;20054;-68
2023/03/13 05:27:36;;;;;;;0.10;0.10;;;;;;;-5.52;71.59;98884.56;4982348;28;20481;-68
2023/03/13 05:30:23;;;;;;;0.10;0.10;;;;;;;-5.39;70.73;98883.81;4958476;28;20066;-68
2023/03/13 05:33:03;;;;;;;0.10;0.10;;;;;;;-5.32;70.69;98889.22;4968974;28;20536;-68
2023/03/13 05:35:42;;;;;;;0.33;0.20;;;;;;;-5.24;69.99;98889.03;4961053;28;20058;-68
2023/03/13 05:38:47;;;;;;;0.20;0.20;;;;;;;-5.17;69.46;98895.28;4966212;28;20050;-68
2023/03/13 05:41:33;;;;;;;0.10;0.10;;;;;;;-5.04;69.42;98899.06;4961172;28;20148;-68
2023/03/13 05:44:21;;;;;;;0.13;0.13;;;;;;;-4.99;69.08;98902.78;4933329;28;20149;-68
2023/03/13 05:47:06;;;;;;;0.10;0.10;;;;;;;-4.95;68.87;98913.06;4968802;28;20580;-68
2023/03/13 05:49:49;;;;;;;0.10;0.10;;;;;;;-4.96;67.97;98908.75;4966248;28;20112;-68
2023/03/13 05:52:18;;;;;;;0.10;0.10;;;;;;;-5.02;67.73;98905.81;4984979;28;20050;-68
2023/03/13 05:55:03;;;;;;;0.20;0.20;;;;;;;-5.00;67.94;98917.09;4988801;28;20568;-69
2023/03/13 05:57:45;;;;;;;0.10;0.10;;;;;;;-4.96;67.52;98916.75;5000235;28;20252;-68
2023/03/13 06:00:25;;;;;;;0.10;0.10;;;;;;;-4.87;67.44;98927.06;4983672;28;20464;-69
2023/03/13 06:03:05;;;;;;;0.20;0.20;;;;;;;-4.81;66.49;98914.78;5001669;28;20050;-69
2023/03/13 06:05:39;;;;;;;0.20;0.20;;;;;;;-4.72;66.65;98918.94;4987606;28;20045;-71
2023/03/13 06:08:13;;;;;;;0.10;0.10;;;;;;;-4.56;66.58;98933.81;4987383;28;20062;-71
2023/03/13 06:10:40;;;;;;;0.20;0.20;;;;;;;-4.45;65.40;98935.09;5016347;28;20050;-71
2023/03/13 06:13:06;;;;;;;0.17;0.17;;;;;;;-4.34;65.33;98939.03;5007697;28;20464;-68
2023/03/13 06:15:36;;;;;;;0.10;0.10;;;;;;;-4.14;65.19;98939.13;5001210;28;20057;-68
2023/03/13 06:18:16;;;;;;;0.20;0.20;;;;;;;-4.04;64.40;98920.03;5005842;28;20148;-68
2023/03/13 06:20:42;;;;;;;0.20;0.20;;;;;;;-3.80;64.31;98941.91;5007163;28;20133;-68
2023/03/13 06:23:08;;;;;;;0.20;0.20;;;;;;;-3.56;64.02;98943.19;5005403;28;20045;-69
2023/03/13 06:25:34;;;;;;;0.20;0.20;;;;;;;-3.53;62.73;98944.59;5006218;28;20050;-68
2023/03/13 06:28:01;;;;;;;0.20;0.20;;;;;;;-3.52;62.53;98951.59;5001731;28;20140;-69
2023/03/13 06:30:27;;;;;;;0.20;0.20;;;;;;;-3.56;62.12;98959.22;5008365;28;20057;-68
2023/03/13 06:32:54;;;;;;;0.20;0.20;;;;;;;-3.59;62.24;98956.94;5007661;28;20046;-68
2023/03/13 06:35:20;;;;;;;0.20;0.20;;;;;;;-3.62;62.08;98954.66;5023126;28;20235;-68
2023/03/13 06:37:47;;;;;;;0.20;0.20;;;;;;;-3.51;61.79;98963.94;5007511;28;20061;-68
2023/03/13 06:40:13;;;;;;;0.13;0.13;;;;;;;-3.42;61.74;98970.72;5005354;28;20050;-68
2023/03/13 06:42:39;;;;;;;0.30;0.30;;;;;;;-3.33;60.82;98975.91;5004376;28;20065;-68
2023/03/13 06:45:06;;;;;;;0.20;0.20;;;;;;;-3.24;60.23;98981.88;5006023;28;20124;-69
2023/03/13 06:47:33;;;;;;;0.20;0.20;;;;;;;-3.14;59.51;98982.28;5009732;28;20050;-71
2023/03/13 06:50:00;;;;;;;0.30;0.30;;;;;;;-2.93;60.50;98977.75;5004967;28;20083;-71
2023/03/13 06:52:26;;;;;;;0.30;0.30;;;;;;;-2.79;59.56;98973.22;5008743;28;20125;-71
2023/03/13 06:54:52;;;;;;;0.20;0.20;;;;;;;-2.77;59.91;98984.53;5008672;28;20054;-72
2023/03/13 06:57:18;;;;;;;0.20;0.20;;;;;;;-2.77;59.09;98982.69;5009693;28;20556;-71
2023/03/13 06:59:45;;;;;;;0.30;0.30;;;;;;;-2.76;59.50;98991.53;5009444;28;20602;-70
2023/03/13 07:02:11;;;;;;;0.20;0.20;;;;;;;-2.64;59.48;98994.41;4990010;28;20050;-72
2023/03/13 07:04:37;;;;;;;0.27;0.27;;;;;;;-2.65;59.38;98987.41;5008661;28;20104;-71
2023/03/13 07:07:05;;;;;;;0.20;0.20;;;;;;;-2.52;58.84;98989.25;5007670;28;20049;-71
2023/03/13 07:09:31;;;;;;;0.20;0.20;;;;;;;-2.48;56.76;99009.22;5005980;28;20068;-71
2023/03/13 07:11:58;;;;;;;0.20;0.20;;;;;;;-2.54;57.03;98994.78;4990444;28;20057;-72
2023/03/13 07:14:24;;;;;;;0.25;0.25;;;;;;;-2.17;57.61;98999.66;5006839;28;20228;-72
2023/03/13 07:16:51;;;;;;;0.30;0.30;;;;;;;-1.69;56.73;99014.53;5004924;28;20120;-71
2023/03/13 07:19:17;;;;;;;0.30;0.30;;;;;;;-1.29;55.00;99008.13;5008211;28;20525;-71
2023/03/13 07:21:43;;;;;;;0.30;0.30;;;;;;;-1.07;55.49;99011.28;5003490;28;20046;-71
2023/03/13 07:24:10;;;;;;;0.30;0.30;;;;;;;-0.90;54.75;99016.09;5007766;28;20133;-71
2023/03/13 07:26:36;;;;;;;0.35;0.35;;;;;;;-0.77;54.26;99012.47;5007358;28;20088;-71
2023/03/13 07:29:03;;;;;;;0.20;0.20;;;;;;;-0.86;53.13;99010.06;5003068;28;20044;-71
2023/03/13 07:31:32;;;;;;;0.30;0.30;;;;;;;-0.87;52.83;99034.44;5006178;28;20050;-71
2023/03/13 07:33:58;;;;;;;0.30;0.30;;;;;;;-0.91;53.13;99041.28;5020611;28;20054;-72
2023/03/13 07:36:25;;;;;;;0.22;0.22;;;;;;;-0.97;52.18;99042.97;5007843;28;20269;-72
2023/03/13 07:38:51;;;;;;;0.22;0.22;;;;;;;-1.04;53.03;99063.66;5004925;28;20056;-72
2023/03/13 07:41:19;;;;;;;0.30;0.30;;;;;;;-0.98;51.98;99051.25;5019515;28;20053;-71
2023/03/13 07:43:46;;;;;;;0.20;0.20;;;;;;;-0.92;52.38;99066.50;5003424;28;20104;-72
2023/03/13 07:46:14;;;;;;;0.20;0.20;;;;;;;-1.08;52.64;99083.94;5003569;28;20045;-71
2023/03/13 07:48:42;;;;;;;0.30;0.30;;;;;;;-1.22;53.45;99078.63;5004962;28;20049;-69
2023/03/13 07:51:09;;;;;;;;;;;;;;;-1.20;54.14;99073.88;5007651;28;20056;-69
2023/03/13 07:53:36;;;;;;;0.33;0.33;;;;;;;-1.15;53.20;99079.44;5006465;28;20056;-69
2023/03/13 07:56:04;;;;;;;0.30;0.30;;;;;;;-1.07;53.78;99081.03;5003067;28;20679;-69
2023/03/13 07:58:33;;;;;;;0.20;0.20;;;;;;;-0.84;54.23;99076.16;5006349;28;20584;-69
2023/03/13 08:00:59;;;;;;;0.28;0.28;;;;;;;-0.65;53.62;99082.38;5009047;28;20053;-69
2023/03/13 08:03:27;;;;;;;0.20;0.20;;;;;;;-0.69;52.93;99086.56;5005514;28;20409;-69
2023/03/13 08:05:57;;;;;;;0.20;0.20;;;;;;;-0.91;53.35;99086.94;5003477;28;20050;-69
2023/03/13 08:08:24;;;;;;;0.20;0.20;;;;;;;-0.92;53.72;99086.09;5020040;28;20225;-69
2023/03/13 08:10:50;;;;;;;0.30;0.30;;;;;;;-0.68;53.71;99089.03;5005751;28;20060;-69
2023/03/13 08:13:16;;;;;;;0.20;0.20;;;;;;;-0.68;52.41;99078.28;5005308;28;20045;-69
2023/03/13 08:15:43;;;;;;;0.30;0.30;;;;;;;-0.78;53.19;99081.47;5004582;28;20046;-72
2023/03/13 08:18:09;;;;;;;0.20;0.20;;;;;;;-0.87;52.63;99088.13;5005413;28;20050;-72
2023/03/13 08:20:36;;;;;;;0.20;0.20;;;;;;;-0.97;53.67;99067.13;5007407;28;20148;-72
2023/03/13 08:23:02;;;;;;;0.32;0.32;;;;;;;-0.90;53.10;99092.06;5006735;28;20260;-72
2023/03/13 08:25:28;;;;;;;0.30;0.30;;;;;;;-0.19;52.85;99091.09;5006352;28;20037;-73
2023/03/13 08:27:54;;;;;;;0.30;0.30;;;;;;;0.36;51.27;99095.69;5004299;28;20042;-72
2023/03/13 08:30:20;;;;;;;0.20;0.20;;;;;;;0.40;50.87;99090.69;5023345;28;20140;-72
2023/03/13 08:32:48;;;;;;;0.28;0.28;;;;;;;0.34;51.44;99097.78;5007563;28;20440;-72
2023/03/13 08:35:14;;;;;;;0.20;0.20;;;;;;;0.13;51.84;99082.91;5020736;28;20093;-71
2023/03/13 08:37:40;;;;;;;0.30;0.30;;;;;;;0.07;52.47;99100.75;5007393;28;20428;-72
2023/03/13 08:40:10;;;;;;;0.20;0.20;;;;;;;0.01;52.40;99098.13;5006297;28;20060;-71
2023/03/13 08:42:37;;;;;;;0.28;0.28;;;;;;;-0.20;53.31;99100.22;5004712;28;20046;-71
2023/03/13 08:45:05;;;;;;;0.30;0.30;;;;;;;-0.01;53.29;99106.41;4668069;28;10000566;-71
2023/03/13 08:47:31;;;;;;;0.20;0.20;;;;;;;-0.19;53.27;99105.34;5037145;28;20044;-71
2023/03/13 08:49:59;;;;;;;0.20;0.20;;;;;;;-0.51;54.10;99113.47;5040209;28;20049;-71
2023/03/13 08:52:25;;;;;;;0.40;0.40;;;;;;;-0.10;53.93;99127.38;5042107;28;20059;-71
2023/03/13 08:54:51;;;;;;;0.30;0.30;;;;;;;0.53;51.83;99111.22;5042150;28;20087;-70
2023/03/13 08:57:17;;;;;;;0.40;0.40;;;;;;;1.38;51.18;99113.97;5044538;28;20084;-71
2023/03/13 08:59:43;;;;;;;0.30;0.30;;;;;;;1.23;50.56;99127.91;5043813;28;20052;-68
2023/03/13 09:02:09;;;;;;;0.40;0.40;;;;;;;1.45;50.04;99120.09;5040922;28;20625;-68
2023/03/13 09:04:35;;;;;;;0.47;0.47;;;;;;;2.02;48.28;99129.50;5041764;28;20064;-68
2023/03/13 09:07:03;;;;;;;0.20;0.20;;;;;;;1.09;49.13;99128.09;5043124;28;20516;-69
2023/03/13 09:09:29;;;;;;;0.50;0.50;;;;;;;0.50;49.92;99111.66;5041588;28;20126;-71
2023/03/13 09:11:55;;;;;;;0.20;0.20;;;;;;;0.07;51.87;99143.78;5026380;28;20056;-70
2023/03/13 09:14:21;;;;;;;0.30;0.30;;;;;;;-0.01;53.29;99134.13;5038898;28;20052;-70
2023/03/13 09:16:47;;;;;;;0.20;0.20;;;;;;;-0.21;54.22;99137.00;5037312;28;20045;-70
2023/03/13 09:19:14;;;;;;;0.30;0.30;;;;;;;-0.05;53.81;99153.59;5004330;28;20061;-68
2023/03/13 09:21:40;;;;;;;0.30;0.30;;;;;;;-0.10;54.44;99154.25;5003024;28;20057;-67
2023/03/13 09:24:08;;;;;;;0.40;0.40;;;;;;;0.50;54.14;99144.75;5001157;28;20132;-67
2023/03/13 09:26:34;;;;;;;;;;;;;;;0.72;52.90;99165.00;5003691;28;20053;-70
2023/03/13 09:29:00;;;;;;;0.30;0.30;;;;;;;0.22;54.00;99147.97;5019231;28;19925;-70
2023/03/13 09:31:28;;;;;;;0.20;0.20;;;;;;;-0.11;55.31;99162.56;5002852;28;20042;-70
2023/03/13 09:33:54;;;;;;;0.20;0.20;;;;;;;-0.04;56.13;99153.38;5004155;28;20085;-69
2023/03/13 09:36:22;;;;;;;0.20;0.20;;;;;;;-0.11;55.56;99174.13;5002783;28;20049;-69
2023/03/13 09:38:48;;;;;;;;;;;;;;;-0.13;56.14;99172.72;5005034;28;20099;-69
2023/03/13 09:41:22;;;;;;;0.20;0.20;;;;;;;0.35;55.80;99166.66;5006133;28;20410;-69
2023/03/13 09:43:55;;;;;;;0.20;0.20;;;;;;;0.26;55.69;99174.22;5006704;28;20046;-69
2023/03/13 09:46:26;;;;;;;0.20;0.20;;;;;;;0.17;55.48;99188.16;5005226;28;20065;-69
2023/03/13 09:48:56;;;;;;;0.30;0.30;;;;;;;-0.13;54.92;99156.59;5005436;28;20096;-67
2023/03/13 09:51:27;;;;;;;0.20;0.20;;;;;;;-0.23;56.02;99173.22;5004954;28;20587;-68
2023/03/13 09:53:58;;;;;;;0.40;0.40;;;;;;;-0.13;56.60;99178.09;5003246;28;20077;-67
2023/03/13 09:56:31;;;;;;;0.30;0.30;;;;;;;0.35;56.08;99188.19;5004190;28;20046;-68
2023/03/13 09:59:02;;;;;;;0.40;0.40;;;;;;;0.94;54.16;99187.72;5001499;28;20132;-67
2023/03/13 10:01:32;;;;;;;0.45;0.45;;;;;;;0.88;54.13;99191.31;4654691;28;10000499;-67
2023/03/13 10:04:05;;;;;;;0.50;0.50;;;;;;;1.16;53.62;99192.63;5001480;28;20085;-67
2023/03/13 10:06:37;;;;;;;0.40;0.40;;;;;;;1.97;51.78;99176.09;5001263;28;20057;-67
2023/03/13 10:09:14;;;;;;;0.30;0.30;;;;;;;1.86;52.71;99187.66;5002900;28;20054;-68
2023/03/13 10:11:45;;;;;;;0.30;0.30;;;;;;;2.16;51.57;99199.41;5015519;28;20053;-67
2023/03/13 10:14:16;;;;;;;0.20;0.20;;;;;;;1.10;52.48;99207.00;5020385;28;20045;-67
2023/03/13 10:16:47;;;;;;;0.20;0.20;;;;;;;-0.03;55.00;99203.41;4997865;28;20050;-67
2023/03/13 10:19:16;;;;;;;0.20;0.20;;;;;;;-0.44;56.96;99220.88;5003105;28;20680;-67
2023/03/13 10:21:45;;;;;;;0.20;0.20;;;;;;;-0.75;57.95;99212.59;5004385;28;20065;-69
2023/03/13 10:24:17;;;;;;;0.15;0.15;;;;;;;-1.15;59.21;99220.81;5005578;28;20081;-67
2023/03/13 10:26:45;;;;;;;0.20;0.20;;;;;;;-1.27;60.22;99228.69;5005415;28;20132;-67
2023/03/13 10:29:20;;;;;;;0.20;0.20;;;;;;;-1.41;60.93;99216.34;4985661;28;20125;-67
2023/03/13 10:31:54;;;;;;;0.47;0.30;;;;;;;-1.49;61.13;99238.84;5007173;28;20054;-68
2023/03/13 10:34:20;;;;;;;0.20;0.20;;;;;;;-1.61;61.60;99242.16;5005450;28;20042;-67
2023/03/13 10:36:49;;;;;;;0.15;0.15;;;;;;;-1.68;61.46;99233.31;5007811;28;20061;-67
2023/03/13 10:39:17;;;;;;;0.20;0.20;;;;;;;-1.61;62.06;99255.56;5004600;28;20470;-67
2023/03/13 10:41:48;;;;;;;0.20;0.20;;;;;;;-1.33;61.27;99234.88;5005118;28;20105;-67
2023/03/13 10:44:16;;;;;;;0.28;0.28;;;;;;;-1.09;60.01;99195.00;5019973;28;20513;-67
2023/03/13 10:46:45;;;;;;;0.20;0.20;;;;;;;-1.16;59.69;99248.69;5003369;28;20053;-67
2023/03/13 10:49:15;;;;;;;0.20;0.20;;;;;;;-1.27;60.21;99254.69;5004487;28;20049;-68
2023/03/13 10:51:47;;;;;;;0.20;0.20;;;;;;;-1.27;60.58;99244.78;5004459;28;20048;-68
2023/03/13 10:54:20;;;;;;;0.20;0.20;;;;;;;-0.96;59.08;99261.19;5002231;28;20647;-68
2023/03/13 10:56:48;;;;;;;0.20;0.20;;;;;;;-1.11;57.96;99256.09;5002615;28;20054;-67
2023/03/13 10:59:20;;;;;;;;;;;;;;;-1.07;58.63;99244.75;5006067;28;20050;-67
2023/03/13 11:01:47;;;;;;;0.30;0.30;;;;;;;-1.07;58.04;99265.38;5007037;28;19925;-67
2023/03/13 11:04:29;;;;;;;0.28;0.28;;;;;;;-1.09;57.44;99300.47;5005515;28;20057;-67
2023/03/13 11:07:00;;;;;;;0.20;0.20;;;;;;;-1.40;57.17;99319.91;5006766;28;20046;-67
2023/03/13 11:09:26;;;;;;;0.20;0.20;;;;;;;-1.56;58.74;99273.72;5004163;28;20053;-67
2023/03/13 11:12:00;;;;;;;0.20;0.20;;;;;;;-1.55;58.56;99269.22;5003182;28;20042;-68
2023/03/13 11:14:26;;;;;;;0.20;0.20;;;;;;;-1.64;59.06;99298.91;5003832;28;20153;-68
2023/03/13 11:16:55;;;;;;;0.20;0.20;;;;;;;-1.72;59.03;99281.16;5007160;28;20140;-68
2023/03/13 11:19:53;;;;;;;0.20;0.20;;;;;;;-1.74;60.37;99298.47;5006726;28;20062;-68
2023/03/13 11:22:29;;;;;;;0.23;0.23;;;;;;;-1.86;60.15;99277.66;4999098;28;20433;-67
2023/03/13 11:25:12;;;;;;;0.20;0.20;;;;;;;-1.81;60.50;99303.84;5009358;28;20143;-68
2023/03/13 11:27:47;;;;;;;0.13;0.13;;;;;;;-1.81;61.04;99314.56;5008698;28;20087;-67
2023/03/13 11:30:23;;;;;;;0.20;0.20;;;;;;;-1.94;62.94;99301.97;5007342;28;20077;-68
2023/03/13 11:32:53;;;;;;;0.10;0.10;;;;;;;-1.97;63.70;99323.00;5005560;28;20580;-67
2023/03/13 11:35:37;;;;;;;0.20;0.20;;;;;;;-2.02;65.18;99324.44;4925420;28;10000767;-68
2023/03/13 11:38:12;;;;;;;0.30;0.30;;;;;;;-1.86;66.81;99325.91;5003984;28;20266;-67
2023/03/13 11:40:45;;;;;;;0.20;0.20;;;;;;;-1.84;66.58;99323.00;4999862;28;20049;-67
2023/03/13 11:43:33;;;;;;;0.20;0.20;;;;;;;-1.81;65.20;99337.88;5002331;28;20137;-68
2023/03/13 11:46:06;;;;;;;;;;;;;;;-1.82;64.86;99333.53;5000351;28;20049;-67
2023/03/13 11:48:59;;;;;;;0.30;0.30;;;;;;;-1.71;64.30;99327.56;5001186;28;19932;-67
2023/03/13 11:51:33;;;;;;;0.20;0.20;;;;;;;-1.51;62.47;99326.75;4999436;28;20057;-68
2023/03/13 11:54:17;;;;;;;0.10;0.10;;;;;;;-1.37;62.92;99330.22;5007146;28;20049;-68